Terminal Aerodrome Forecast
Issued by NWS Brownsville, TX

Home | Current Version | Previous Version | Text Only | Print | Product List | Glossary On
Versions: 1 2 3 4 5 6 7 8 9 10 11 12 13 14 15
000
FTUS44 KBRO 051122
TAFBRO
TAF
KBRO 051122Z 0512/0612 16004KT P6SM SKC
     FM051600 15015G20KT P6SM SCT040
     FM060000 14010KT P6SM SKC=

USA.gov is the U.S. government's official web portal to all federal, state and local government web resources and services.